createdAt,value
2023-03-06T00:01:01.626Z,96468.56
2023-03-06T00:03:28.678Z,96466.63
2023-03-06T00:05:57.614Z,96462.19
2023-03-06T00:08:25.872Z,96458.75
2023-03-06T00:10:52.961Z,96458.88
2023-03-06T00:13:20.047Z,96459.72
2023-03-06T00:15:48.610Z,96452.94
2023-03-06T00:18:15.523Z,96451.00
2023-03-06T00:20:44.032Z,96446.72
2023-03-06T00:23:11.394Z,96453.47
2023-03-06T00:25:41.754Z,96444.63
2023-03-06T00:28:08.450Z,96443.09
2023-03-06T00:30:35.877Z,96435.22
2023-03-06T00:33:02.536Z,96438.66
2023-03-06T00:35:29.199Z,96438.66
2023-03-06T00:37:57.872Z,96442.00
2023-03-06T00:40:24.491Z,96437.00
2023-03-06T00:42:51.324Z,96430.94
2023-03-06T00:45:18.068Z,96429.28
2023-03-06T00:47:44.702Z,96429.28
2023-03-06T00:50:11.557Z,96415.16
2023-03-06T00:52:38.425Z,96413.50
2023-03-06T00:55:05.673Z,96416.41
2023-03-06T00:57:32.339Z,96409.06
2023-03-06T00:59:59.014Z,96403.13
2023-03-06T01:02:25.775Z,96402.28
2023-03-06T01:04:52.447Z,96390.78
2023-03-06T01:07:19.176Z,96385.38
2023-03-06T01:09:45.805Z,96390.78
2023-03-06T01:12:12.528Z,96390.78
2023-03-06T01:14:39.237Z,96383.59
2023-03-06T01:17:05.916Z,96379.31
2023-03-06T01:19:32.525Z,96377.66
2023-03-06T01:21:59.248Z,96376.81
2023-03-06T01:24:26.021Z,96377.66
2023-03-06T01:26:52.984Z,96373.91
2023-03-06T01:29:20.015Z,96366.16
2023-03-06T01:31:46.718Z,96367.94
2023-03-06T01:34:13.375Z,96361.72
2023-03-06T01:36:40.106Z,96359.25
2023-03-06T01:39:06.760Z,96348.72
2023-03-06T01:41:33.475Z,96358.25
2023-03-06T01:44:00.228Z,96348.72
2023-03-06T01:46:30.326Z,96351.50
2023-03-06T01:49:23.023Z,96347.75
2023-03-06T01:52:12.149Z,96347.19
2023-03-06T01:54:50.319Z,96345.53
2023-03-06T01:57:27.257Z,96338.47
2023-03-06T01:59:57.786Z,96334.88
2023-03-06T02:02:25.331Z,96331.28
2023-03-06T02:04:51.991Z,96323.25
2023-03-06T02:07:21.306Z,96322.41
2023-03-06T02:09:47.924Z,96319.09
2023-03-06T02:12:19.144Z,96315.66
2023-03-06T02:14:47.120Z,96318.28
2023-03-06T02:17:17.046Z,96312.19
2023-03-06T02:20:34.109Z,96291.44
2023-03-06T02:23:39.748Z,96304.97
2023-03-06T02:26:08.984Z,96295.72
2023-03-06T02:28:35.801Z,96297.25
2023-03-06T02:31:02.484Z,96297.53
2023-03-06T02:33:29.966Z,96290.31
2023-03-06T02:36:00.049Z,96284.25
2023-03-06T02:38:49.354Z,96277.19
2023-03-06T02:41:16.786Z,96279.50
2023-03-06T02:43:46.308Z,96268.47
2023-03-06T02:46:13.124Z,96271.78
2023-03-06T02:48:40.062Z,96266.50
2023-03-06T02:51:06.866Z,96276.75
2023-03-06T02:53:33.524Z,96274.41
2023-03-06T02:56:00.749Z,96271.78
2023-03-06T02:58:27.881Z,96274.53
2023-03-06T03:00:54.650Z,96266.66
2023-03-06T03:03:21.305Z,96265.00
2023-03-06T03:05:48.056Z,96262.91
2023-03-06T03:08:14.700Z,96260.56
2023-03-06T03:10:44.559Z,96256.13
2023-03-06T03:13:11.222Z,96258.31
2023-03-06T03:15:37.998Z,96250.06
2023-03-06T03:18:05.026Z,96248.25
2023-03-06T03:20:31.755Z,96247.97
2023-03-06T03:22:58.479Z,96244.78
2023-03-06T03:25:26.375Z,96250.06
2023-03-06T03:27:53.085Z,96250.19
2023-03-06T03:30:19.857Z,96241.78
2023-03-06T03:32:46.487Z,96238.03
2023-03-06T03:35:13.510Z,96235.53
2023-03-06T03:37:40.475Z,96235.25
2023-03-06T03:40:08.241Z,96236.06
2023-03-06T03:42:34.895Z,96234.44
2023-03-06T03:45:01.625Z,96230.66
2023-03-06T03:47:28.260Z,96224.72
2023-03-06T03:49:55.003Z,96221.56
2023-03-06T03:52:21.758Z,96222.25
2023-03-06T03:54:48.453Z,96222.25
2023-03-06T03:57:15.137Z,96214.66
2023-03-06T03:59:41.774Z,96209.25
2023-03-06T04:02:08.439Z,96206.09
2023-03-06T04:04:35.143Z,96201.50
2023-03-06T04:07:01.859Z,96195.28
2023-03-06T04:09:28.575Z,96194.44
2023-03-06T04:11:55.230Z,96204.28
2023-03-06T04:14:22.242Z,96196.41
2023-03-06T04:16:48.909Z,96193.91
2023-03-06T04:19:15.501Z,96199.03
2023-03-06T04:21:42.148Z,96198.34
2023-03-06T04:24:09.176Z,96197.38
2023-03-06T04:26:36.242Z,96196.69
2023-03-06T04:29:02.957Z,96193.09
2023-03-06T04:31:30.156Z,96188.81
2023-03-06T04:33:56.864Z,96182.88
2023-03-06T04:36:29.805Z,96179.41
2023-03-06T04:38:57.154Z,96177.59
2023-03-06T04:41:23.842Z,96181.38
2023-03-06T04:43:51.551Z,96174.16
2023-03-06T04:46:18.468Z,96170.69
2023-03-06T04:48:45.166Z,96178.59
2023-03-06T04:51:13.293Z,96170.84
2023-03-06T04:53:40.295Z,96172.66
2023-03-06T04:56:07.496Z,96163.78
2023-03-06T04:58:34.179Z,96164.75
2023-03-06T05:01:00.996Z,96156.19
2023-03-06T05:03:27.793Z,96167.53
2023-03-06T05:05:54.866Z,96163.94
2023-03-06T05:08:21.827Z,96163.94
2023-03-06T05:10:55.824Z,96160.47
2023-03-06T05:13:22.458Z,96159.50
2023-03-06T05:15:49.099Z,96171.28
2023-03-06T05:18:15.736Z,96166.84
2023-03-06T05:20:42.412Z,96157.16
2023-03-06T05:23:09.073Z,96164.22
2023-03-06T05:25:35.726Z,96156.50
2023-03-06T05:28:02.335Z,96157.47
2023-03-06T05:30:29.040Z,96156.50
2023-03-06T05:32:55.801Z,96146.81
2023-03-06T05:35:23.228Z,96154.84
2023-03-06T05:37:50.122Z,96151.22
2023-03-06T05:40:18.760Z,96144.47
2023-03-06T05:42:45.860Z,96152.50
2023-03-06T05:45:12.693Z,96148.75
2023-03-06T05:47:39.486Z,96142.97
2023-03-06T05:50:08.393Z,96149.88
2023-03-06T05:52:35.170Z,96156.25
2023-03-06T05:55:01.986Z,96150.84
2023-03-06T05:57:28.627Z,96150.84
2023-03-06T05:59:55.287Z,96161.50
2023-03-06T06:02:22.008Z,96157.22
2023-03-06T06:04:48.685Z,96152.50
2023-03-06T06:07:16.602Z,96144.09
2023-03-06T06:09:48.052Z,96154.75
2023-03-06T06:12:14.736Z,96149.19
2023-03-06T06:14:41.473Z,96152.66
2023-03-06T06:17:08.157Z,96152.66
2023-03-06T06:19:34.863Z,96149.19
2023-03-06T06:22:03.847Z,96150.03
2023-03-06T06:24:32.146Z,96137.03
2023-03-06T06:27:02.005Z,96138.00
2023-03-06T06:29:30.391Z,96137.72
2023-03-06T06:31:57.185Z,96148.50
2023-03-06T06:34:24.843Z,96139.66
2023-03-06T06:36:53.534Z,96156.41
2023-03-06T06:39:22.153Z,96154.59
2023-03-06T06:42:05.582Z,96147.69
2023-03-06T06:44:37.382Z,96145.75
2023-03-06T06:47:24.062Z,96137.03
2023-03-06T06:49:53.344Z,96142.28
2023-03-06T06:52:20.497Z,96142.81
2023-03-06T06:54:47.416Z,96144.63
2023-03-06T06:57:14.852Z,96148.22
2023-03-06T06:59:41.585Z,96148.50
2023-03-06T07:02:10.655Z,96156.78
2023-03-06T07:04:40.978Z,96164.00
2023-03-06T07:07:11.056Z,96155.44
2023-03-06T07:09:39.910Z,96161.38
2023-03-06T07:12:08.003Z,96163.16
2023-03-06T07:14:34.623Z,96158.88
2023-03-06T07:17:01.266Z,96158.72
2023-03-06T07:19:27.977Z,96158.88
2023-03-06T07:21:55.071Z,96162.34
2023-03-06T07:24:21.868Z,96165.94
2023-03-06T07:26:48.594Z,96160.38
2023-03-06T07:29:15.803Z,96156.94
2023-03-06T07:31:42.829Z,96164.66
2023-03-06T07:34:13.303Z,96169.63
2023-03-06T07:36:40.547Z,96164.66
2023-03-06T07:39:08.780Z,96163.84
2023-03-06T07:41:35.954Z,96175.88
2023-03-06T07:44:03.395Z,96169.78
2023-03-06T07:46:30.094Z,96171.59
2023-03-06T07:48:56.985Z,96174.91
2023-03-06T07:51:23.683Z,96171.81
2023-03-06T07:53:50.444Z,96176.94
2023-03-06T07:56:17.590Z,96183.00
2023-03-06T07:58:45.825Z,96184.13
2023-03-06T08:01:16.210Z,96181.50
2023-03-06T08:03:43.357Z,96174.44
2023-03-06T08:06:15.479Z,96181.50
2023-03-06T08:08:44.868Z,96196.00
2023-03-06T08:11:13.047Z,96187.44
2023-03-06T08:13:40.883Z,96187.06
2023-03-06T08:16:08.139Z,96184.44
2023-03-06T08:18:35.008Z,96188.34
2023-03-06T08:21:06.431Z,96179.47
2023-03-06T08:23:33.875Z,96180.84
2023-03-06T08:26:03.789Z,96193.28
2023-03-06T08:28:30.519Z,96187.34
2023-03-06T08:30:57.880Z,96195.09
2023-03-06T08:33:25.427Z,96194.13
2023-03-06T08:35:52.866Z,96200.88
2023-03-06T08:38:19.486Z,96198.78
2023-03-06T08:40:46.378Z,96197.13
2023-03-06T08:43:14.435Z,96203.59
2023-03-06T08:45:41.301Z,96196.84
2023-03-06T08:48:08.126Z,96195.88
2023-03-06T08:50:34.852Z,96188.81
2023-03-06T08:53:01.600Z,96201.28
2023-03-06T08:55:28.400Z,96196.00
2023-03-06T08:57:55.212Z,96196.00
2023-03-06T09:00:22.072Z,96196.69
2023-03-06T09:02:48.718Z,96195.78
2023-03-06T09:05:15.453Z,96195.78
2023-03-06T09:07:42.076Z,96201.41
2023-03-06T09:10:13.823Z,96199.09
2023-03-06T09:12:49.418Z,96199.63
2023-03-06T09:15:19.336Z,96199.31
2023-03-06T09:17:46.154Z,96203.47
2023-03-06T09:20:14.046Z,96205.84
2023-03-06T09:22:42.628Z,96206.69
2023-03-06T09:25:11.170Z,96200.28
2023-03-06T09:27:37.865Z,96196.84
2023-03-06T09:30:05.271Z,96201.94
2023-03-06T09:32:32.011Z,96197.53
2023-03-06T09:34:59.059Z,96205.78
2023-03-06T09:37:25.774Z,96202.34
2023-03-06T09:39:52.516Z,96197.22
2023-03-06T09:42:21.649Z,96194.53
2023-03-06T09:44:54.631Z,96198.63
2023-03-06T09:47:39.498Z,96197.38
2023-03-06T09:50:22.245Z,96203.00
2023-03-06T09:52:59.367Z,96195.78
2023-03-06T09:55:29.038Z,96193.91
2023-03-06T09:58:01.626Z,96200.97
2023-03-06T10:00:39.764Z,96193.22
2023-03-06T10:03:27.656Z,96189.47
2023-03-06T10:06:02.800Z,96185.56
2023-03-06T10:08:50.104Z,96184.59
2023-03-06T10:11:26.424Z,96181.38
2023-03-06T10:14:14.293Z,96183.53
2023-03-06T10:16:41.348Z,96180.09
2023-03-06T10:19:17.428Z,96184.53
2023-03-06T10:22:16.808Z,96181.75
2023-03-06T10:24:56.574Z,96171.38
2023-03-06T10:27:31.943Z,96175.94
2023-03-06T10:30:10.820Z,96171.25
2023-03-06T10:32:51.303Z,96182.97
2023-03-06T10:35:47.892Z,96173.28
2023-03-06T10:38:37.568Z,96176.97
2023-03-06T10:41:09.044Z,96174.47
2023-03-06T10:43:37.046Z,96165.91
2023-03-06T10:46:05.303Z,96160.66
2023-03-06T10:48:36.212Z,96158.38
2023-03-06T10:51:20.094Z,96158.06
2023-03-06T10:53:51.690Z,96148.59
2023-03-06T10:56:30.530Z,96156.34
2023-03-06T10:59:20.067Z,96157.53
2023-03-06T11:01:49.864Z,96164.28
2023-03-06T11:04:33.837Z,96149.25
2023-03-06T11:07:12.448Z,96152.50
2023-03-06T11:09:39.610Z,96149.84
2023-03-06T11:12:38.593Z,96146.44
2023-03-06T11:15:05.399Z,96143.34
2023-03-06T11:17:33.300Z,96137.91
2023-03-06T11:20:14.979Z,96141.78
2023-03-06T11:22:43.485Z,96135.69
2023-03-06T11:25:15.052Z,96149.00
2023-03-06T11:27:45.608Z,96141.41
2023-03-06T11:30:30.496Z,96139.31
2023-03-06T11:33:25.867Z,96132.84
2023-03-06T11:36:08.683Z,96137.59
2023-03-06T11:38:52.778Z,96131.66
2023-03-06T11:41:31.980Z,96130.38
2023-03-06T11:44:24.740Z,96121.03
2023-03-06T11:46:59.410Z,96121.38
2023-03-06T11:49:32.737Z,96116.31
2023-03-06T11:52:05.813Z,96115.72
2023-03-06T11:54:33.779Z,96110.44
2023-03-06T11:57:20.532Z,96105.22
2023-03-06T12:00:11.657Z,96098.69
2023-03-06T12:02:58.770Z,96100.88
2023-03-06T12:05:35.160Z,96096.22
2023-03-06T12:08:07.623Z,96094.53
2023-03-06T12:10:51.673Z,96105.66
2023-03-06T12:13:36.346Z,96103.88
2023-03-06T12:16:21.059Z,96105.22
2023-03-06T12:19:10.952Z,96097.44
2023-03-06T12:21:56.540Z,96098.84
2023-03-06T12:24:26.113Z,96103.28
2023-03-06T12:27:12.553Z,96102.44
2023-03-06T12:30:04.806Z,96108.84
2023-03-06T12:33:12.838Z,96100.59
2023-03-06T12:35:54.946Z,96096.34
2023-03-06T12:38:33.629Z,96103.22
2023-03-06T12:41:06.188Z,96098.94
2023-03-06T12:43:32.892Z,96099.75
2023-03-06T12:46:21.784Z,96102.75
2023-03-06T12:49:08.653Z,96099.59
2023-03-06T12:51:36.242Z,96091.19
2023-03-06T12:54:03.824Z,96087.13
2023-03-06T12:56:32.087Z,96080.09
2023-03-06T12:59:02.754Z,96082.91
2023-03-06T13:01:55.645Z,96082.13
2023-03-06T13:04:40.518Z,96080.31
2023-03-06T13:07:15.087Z,96084.09
2023-03-06T13:10:16.369Z,96085.25
2023-03-06T13:12:58.400Z,96079.47
2023-03-06T13:15:40.484Z,96081.59
2023-03-06T13:18:22.244Z,96081.91
2023-03-06T13:20:51.190Z,96083.84
2023-03-06T13:23:30.479Z,96092.59
2023-03-06T13:26:24.504Z,96091.28
2023-03-06T13:28:58.308Z,96096.88
2023-03-06T13:31:28.118Z,96100.69
2023-03-06T13:34:03.895Z,96092.28
2023-03-06T13:36:39.595Z,96088.84
2023-03-06T13:39:11.084Z,96094.16
2023-03-06T13:41:56.771Z,96084.16
2023-03-06T13:44:23.603Z,96087.56
2023-03-06T13:47:05.092Z,96084.06
2023-03-06T13:49:33.663Z,96095.63
2023-03-06T13:52:18.277Z,96094.63
2023-03-06T13:54:51.242Z,96094.31
2023-03-06T13:57:39.548Z,96092.81
2023-03-06T14:00:42.441Z,96081.63
2023-03-06T14:03:17.945Z,96087.34
2023-03-06T14:05:47.067Z,96082.41
2023-03-06T14:08:17.612Z,96083.38
2023-03-06T14:10:46.541Z,96083.38
2023-03-06T14:13:32.101Z,96081.44
2023-03-06T14:16:02.071Z,96090.31
2023-03-06T14:18:42.463Z,96094.69
2023-03-06T14:21:13.723Z,96083.28
2023-03-06T14:23:45.174Z,96096.16
2023-03-06T14:26:23.096Z,96093.63
2023-03-06T14:28:52.505Z,96087.22
2023-03-06T14:31:22.330Z,96088.91
2023-03-06T14:33:54.532Z,96077.88
2023-03-06T14:36:24.252Z,96084.16
2023-03-06T14:39:07.607Z,96080.72
2023-03-06T14:41:35.820Z,96079.56
2023-03-06T14:44:08.544Z,96082.88
2023-03-06T14:46:35.530Z,96073.16
2023-03-06T14:49:07.358Z,96078.44
2023-03-06T14:51:41.974Z,96080.19
2023-03-06T14:54:19.663Z,96083.34
2023-03-06T14:56:50.552Z,96084.06
2023-03-06T14:59:25.960Z,96079.63
2023-03-06T15:01:59.394Z,96073.75
2023-03-06T15:04:29.430Z,96078.69
2023-03-06T15:06:57.202Z,96082.06
2023-03-06T15:09:29.709Z,96077.94
2023-03-06T15:12:01.305Z,96077.34
2023-03-06T15:14:37.334Z,96072.44
2023-03-06T15:17:28.310Z,96070.50
2023-03-06T15:20:00.728Z,96073.47
2023-03-06T15:22:43.552Z,96068.16
2023-03-06T15:25:30.193Z,96065.03
2023-03-06T15:28:02.623Z,96064.88
2023-03-06T15:30:35.223Z,96068.94
2023-03-06T15:33:10.801Z,96068.78
2023-03-06T15:35:38.585Z,96071.59
2023-03-06T15:38:43.089Z,96073.59
2023-03-06T15:41:29.066Z,96075.72
2023-03-06T15:43:58.460Z,96064.00
2023-03-06T15:46:25.460Z,96069.06
2023-03-06T15:48:54.077Z,96074.16
2023-03-06T15:51:21.437Z,96065.81
2023-03-06T15:53:48.141Z,96067.44
2023-03-06T15:56:15.485Z,96062.19
2023-03-06T15:58:42.668Z,96062.50
2023-03-06T16:01:16.435Z,96053.47
2023-03-06T16:03:44.654Z,96060.22
2023-03-06T16:06:26.582Z,96065.66
2023-03-06T16:08:53.248Z,96064.66
2023-03-06T16:11:32.412Z,96065.81
2023-03-06T16:14:02.208Z,96070.91
2023-03-06T16:16:37.470Z,96074.06
2023-03-06T16:19:13.981Z,96069.09
2023-03-06T16:21:47.214Z,96072.09
2023-03-06T16:24:16.069Z,96069.41
2023-03-06T16:26:45.312Z,96071.06
2023-03-06T16:29:16.875Z,96064.47
2023-03-06T16:31:43.659Z,96067.75
2023-03-06T16:34:10.273Z,96065.94
2023-03-06T16:36:37.015Z,96071.38
2023-03-06T16:39:04.277Z,96076.47
2023-03-06T16:41:30.971Z,96065.81
2023-03-06T16:43:57.812Z,96076.63
2023-03-06T16:46:25.795Z,96066.63
2023-03-06T16:48:53.190Z,96066.63
2023-03-06T16:51:21.769Z,96077.31
2023-03-06T16:53:50.867Z,96076.47
2023-03-06T16:56:20.422Z,96080.91
2023-03-06T16:58:48.012Z,96079.41
2023-03-06T17:01:17.685Z,96085.81
2023-03-06T17:03:45.350Z,96083.88
2023-03-06T17:06:17.073Z,96091.09
2023-03-06T17:08:44.244Z,96098.47
2023-03-06T17:11:11.763Z,96095.84
2023-03-06T17:13:38.487Z,96091.41
2023-03-06T17:16:05.854Z,96098.31
2023-03-06T17:18:32.709Z,96100.25
2023-03-06T17:21:00.176Z,96094.19
2023-03-06T17:23:28.808Z,96101.25
2023-03-06T17:26:16.055Z,96104.34
2023-03-06T17:28:43.073Z,96105.69
2023-03-06T17:31:20.372Z,96107.19
2023-03-06T17:33:47.058Z,96115.06
2023-03-06T17:36:15.141Z,96109.66
2023-03-06T17:38:42.695Z,96119.38
2023-03-06T17:41:10.860Z,96116.72
2023-03-06T17:43:38.961Z,96119.22
2023-03-06T17:46:10.133Z,96121.00
2023-03-06T17:48:37.001Z,96127.94
2023-03-06T17:51:04.782Z,96130.03
2023-03-06T17:53:32.170Z,96126.59
2023-03-06T17:55:58.802Z,96130.41
2023-03-06T17:58:26.608Z,96125.66
2023-03-06T18:00:53.568Z,96131.91
2023-03-06T18:03:20.403Z,96135.53
2023-03-06T18:05:47.126Z,96130.25
2023-03-06T18:08:14.195Z,96129.59
2023-03-06T18:10:41.662Z,96131.53
2023-03-06T18:13:09.405Z,96133.88
2023-03-06T18:15:40.379Z,96130.41
2023-03-06T18:18:08.095Z,96126.94
2023-03-06T18:20:40.072Z,96127.94
2023-03-06T18:23:06.798Z,96127.09
2023-03-06T18:25:33.522Z,96126.94
2023-03-06T18:28:00.185Z,96121.00
2023-03-06T18:30:27.279Z,96130.25
2023-03-06T18:32:54.559Z,96135.53
2023-03-06T18:35:21.863Z,96128.59
2023-03-06T18:37:48.582Z,96145.38
2023-03-06T18:40:15.422Z,96142.59
2023-03-06T18:42:42.246Z,96141.91
2023-03-06T18:45:09.924Z,96135.53
2023-03-06T18:47:36.619Z,96132.88
2023-03-06T18:50:03.598Z,96138.31
2023-03-06T18:52:30.303Z,96131.25
2023-03-06T18:54:57.452Z,96130.25
2023-03-06T18:57:24.256Z,96131.25
2023-03-06T18:59:50.978Z,96133.03
2023-03-06T19:02:17.724Z,96142.59
2023-03-06T19:04:44.443Z,96131.38
2023-03-06T19:07:13.148Z,96134.53
2023-03-06T19:09:40.096Z,96135.53
2023-03-06T19:12:07.065Z,96134.69
2023-03-06T19:14:33.750Z,96139.81
2023-03-06T19:17:00.438Z,96131.25
2023-03-06T19:19:29.369Z,96128.59
2023-03-06T19:21:59.737Z,96140.13
2023-03-06T19:24:26.725Z,96136.34
2023-03-06T19:26:53.630Z,96137.31
2023-03-06T19:29:20.348Z,96142.59
2023-03-06T19:31:47.072Z,96145.22
2023-03-06T19:34:13.753Z,96143.41
2023-03-06T19:36:41.013Z,96139.28
2023-03-06T19:39:08.417Z,96146.06
2023-03-06T19:41:37.267Z,96138.97
2023-03-06T19:44:06.948Z,96138.31
2023-03-06T19:46:34.628Z,96139.13
2023-03-06T19:49:03.849Z,96150.63
2023-03-06T19:51:30.820Z,96143.56
2023-03-06T19:53:58.112Z,96153.13
2023-03-06T19:56:27.356Z,96140.94
2023-03-06T19:58:54.519Z,96142.59
2023-03-06T20:01:23.534Z,96148.84
2023-03-06T20:03:53.031Z,96147.03
2023-03-06T20:06:20.273Z,96146.34
2023-03-06T20:08:47.587Z,96152.13
2023-03-06T20:11:26.041Z,96153.44
2023-03-06T20:13:53.585Z,96157.84
2023-03-06T20:16:20.441Z,96165.91
2023-03-06T20:18:47.112Z,96158.16
2023-03-06T20:21:15.155Z,96154.56
2023-03-06T20:23:42.430Z,96156.97
2023-03-06T20:26:12.218Z,96154.19
2023-03-06T20:28:40.869Z,96144.34
2023-03-06T20:31:13.661Z,96147.13
2023-03-06T20:33:40.401Z,96144.34
2023-03-06T20:36:22.339Z,96148.63
2023-03-06T20:38:49.553Z,96155.69
2023-03-06T20:41:18.145Z,96156.00
2023-03-06T20:43:45.066Z,96158.31
2023-03-06T20:46:13.214Z,96146.66
2023-03-06T20:48:41.627Z,96153.22
2023-03-06T20:51:19.875Z,96152.91
2023-03-06T20:53:49.103Z,96154.56
2023-03-06T20:56:43.362Z,96143.50
2023-03-06T20:59:14.440Z,96141.53
2023-03-06T21:01:43.551Z,96143.81
2023-03-06T21:04:13.913Z,96149.59
2023-03-06T21:06:43.678Z,96148.78
2023-03-06T21:09:10.942Z,96141.69
2023-03-06T21:11:37.774Z,96140.03
2023-03-06T21:14:04.472Z,96138.84
2023-03-06T21:16:31.780Z,96154.84
2023-03-06T21:19:00.133Z,96142.00
2023-03-06T21:21:30.758Z,96139.06
2023-03-06T21:23:57.998Z,96132.16
2023-03-06T21:26:27.708Z,96128.84
2023-03-06T21:28:57.233Z,96134.13
2023-03-06T21:31:24.381Z,96129.66
2023-03-06T21:33:51.073Z,96136.75
2023-03-06T21:36:20.568Z,96124.41
2023-03-06T21:38:48.774Z,96130.50
2023-03-06T21:41:19.303Z,96126.06
2023-03-06T21:43:46.024Z,96133.13
2023-03-06T21:46:13.366Z,96132.97
2023-03-06T21:48:40.114Z,96129.53
2023-03-06T21:51:12.765Z,96129.53
2023-03-06T21:53:45.531Z,96117.19
2023-03-06T21:56:14.723Z,96120.81
2023-03-06T21:58:41.834Z,96121.63
2023-03-06T22:01:10.288Z,96113.06
2023-03-06T22:03:37.637Z,96100.06
2023-03-06T22:06:25.263Z,96114.72
2023-03-06T22:08:52.646Z,96116.66
2023-03-06T22:11:21.227Z,96117.50
2023-03-06T22:13:48.750Z,96106.97
2023-03-06T22:16:16.772Z,96107.13
2023-03-06T22:18:48.470Z,96106.97
2023-03-06T22:21:17.111Z,96099.06
2023-03-06T22:23:44.103Z,96099.22
2023-03-06T22:26:13.708Z,96094.13
2023-03-06T22:28:41.972Z,96092.00
2023-03-06T22:31:13.320Z,96093.13
2023-03-06T22:33:40.511Z,96080.81
2023-03-06T22:36:09.855Z,96091.34
2023-03-06T22:38:39.275Z,96089.69
2023-03-06T22:41:07.454Z,96073.91
2023-03-06T22:43:34.958Z,96078.19
2023-03-06T22:46:03.202Z,96077.50
2023-03-06T22:48:30.566Z,96080.81
2023-03-06T22:51:04.398Z,96075.53
2023-03-06T22:53:31.942Z,96077.50
2023-03-06T22:56:00.217Z,96074.72
2023-03-06T22:58:28.533Z,96068.78
2023-03-06T23:00:55.205Z,96064.19
2023-03-06T23:03:21.894Z,96069.47
2023-03-06T23:05:48.626Z,96073.75
2023-03-06T23:08:15.243Z,96072.59
2023-03-06T23:10:41.924Z,96071.94
2023-03-06T23:13:08.578Z,96065.69
2023-03-06T23:15:35.586Z,96074.56
2023-03-06T23:18:02.586Z,96055.31
2023-03-06T23:20:29.310Z,96067.34
2023-03-06T23:22:56.005Z,96064.03
2023-03-06T23:25:23.011Z,96064.03
2023-03-06T23:27:49.714Z,96060.44
2023-03-06T23:30:16.511Z,96063.72
2023-03-06T23:32:45.737Z,96059.28
2023-03-06T23:35:12.703Z,96068.00
2023-03-06T23:37:39.398Z,96071.63
2023-03-06T23:40:08.014Z,96082.16
2023-03-06T23:42:34.754Z,96074.56
2023-03-06T23:45:01.434Z,96064.56
2023-03-06T23:47:32.215Z,96059.44
2023-03-06T23:49:58.935Z,96062.09
2023-03-06T23:52:25.648Z,96068.69
2023-03-06T23:54:52.322Z,96055.16
2023-03-06T23:57:18.911Z,96069.81
2023-03-06T23:59:45.793Z,96053.22
